Time;durP1;ratioP1;P1;durP2;ratioP2;P2;SDS_P1;SDS_P2;PMS_P1;PMS_P2;Temp;Humidity;BMP_temperature;BMP_pressure;BME280_temperature;BME280_humidity;BME280_pressure;Samples;Min_cycle;Max_cycle;Signal;HPM_P1;HPM_P2
2022/05/03 00:01:53;;;;;;;;;26.67;23.67;20.50;37.70;;;;;;4701376;30;8908;-75
2022/05/03 00:04:21;;;;;;;;;36.33;32.67;20.50;37.70;;;;;;4700810;30;8822;-75
2022/05/03 00:07:07;;;;;;;;;27.33;26.67;20.40;36.90;;;;;;4701566;30;9500;-75
2022/05/03 00:10:02;;;;;;;;;31.67;30.33;20.40;37.90;;;;;;4701267;30;8826;-76
2022/05/03 00:12:34;;;;;;;;;26.00;25.00;20.40;37.80;;;;;;4701240;30;8829;-75
2022/05/03 00:15:03;;;;;;;;;32.00;30.33;20.30;39.10;;;;;;4701175;30;8840;-75
2022/05/03 00:17:30;;;;;;;;;24.00;23.33;20.30;38.60;;;;;;4701309;30;8912;-75
2022/05/03 00:19:56;;;;;;;;;28.33;28.33;20.40;38.80;;;;;;4701112;30;9387;-74
2022/05/03 00:22:23;;;;;;;;;30.67;28.33;20.40;38.50;;;;;;4701070;30;8821;-74
2022/05/03 00:24:54;;;;;;;;;42.25;35.50;20.40;38.10;;;;;;4700105;30;8891;-76
2022/05/03 00:27:25;;;;;;;;;38.00;33.33;20.40;38.10;;;;;;4714318;30;8841;-76
2022/05/03 00:29:55;;;;;;;;;36.00;33.33;20.40;38.10;;;;;;4701418;30;8825;-74
2022/05/03 00:32:22;;;;;;;;;33.00;32.00;20.40;38.30;;;;;;4701089;30;8840;-75
2022/05/03 00:34:49;;;;;;;;;33.67;31.67;20.40;38.00;;;;;;4701276;30;8864;-75
2022/05/03 00:37:16;;;;;;;;;32.00;31.00;20.40;37.80;;;;;;4701179;30;8818;-75
2022/05/03 00:39:41;;;;;;;;;32.67;31.00;20.40;38.10;;;;;;4701194;30;8806;-74
2022/05/03 00:42:10;;;;;;;;;29.67;26.33;20.40;38.40;;;;;;4700919;30;8857;-75
2022/05/03 00:45:04;;;;;;;;;30.00;30.00;20.40;37.60;;;;;;4700999;30;9516;-74
2022/05/03 00:47:49;;;;;;;;;29.00;25.00;20.40;37.70;;;;;;4701037;30;8868;-76
2022/05/03 00:50:39;;;;;;;;;34.33;32.00;20.30;38.60;;;;;;4701110;30;9496;-73
2022/05/03 00:53:21;;;;;;;;;29.00;27.67;20.20;38.90;;;;;;4700901;30;8814;-74
2022/05/03 00:55:59;;;;;;;;;25.00;23.33;20.10;38.80;;;;;;4700819;30;8934;-74
2022/05/03 00:59:06;;;;;;;;;27.33;25.00;20.20;38.40;;;;;;4700756;30;8856;-73
2022/05/03 01:02:00;;;;;;;;;27.33;26.67;20.30;38.30;;;;;;4699764;30;8821;-73
2022/05/03 01:04:41;;;;;;;;;20.00;20.00;20.30;38.50;;;;;;4700760;30;8814;-75
2022/05/03 01:07:36;;;;;;;;;30.33;28.00;20.20;38.60;;;;;;4700716;30;8930;-76
2022/05/03 01:10:33;;;;;;;;;29.33;29.33;20.20;38.70;;;;;;4700701;30;8817;-74
2022/05/03 01:13:36;;;;;;;;;26.67;25.67;20.20;38.60;;;;;;4696766;30;8868;-73
2022/05/03 01:16:05;;;;;;;;;24.67;23.33;20.20;38.60;;;;;;4647099;30;8865;-75
2022/05/03 01:19:00;;;;;;;;;32.00;29.67;20.20;38.50;;;;;;4647167;30;8874;-75
2022/05/03 01:21:59;;;;;;;;;29.67;28.67;20.10;38.90;;;;;;4617831;30;8834;-76
2022/05/03 01:24:42;;;;;;;;;23.67;22.67;20.00;39.40;;;;;;4647333;30;8815;-73
2022/05/03 01:27:32;;;;;;;;;23.67;23.67;19.90;39.60;;;;;;4647345;30;8877;-75
2022/05/03 01:29:59;;;;;;;;;22.67;22.67;20.10;39.40;;;;;;4647301;30;8818;-75
2022/05/03 01:32:26;;;;;;;;;18.00;18.00;20.10;38.60;;;;;;4647280;30;9495;-75
2022/05/03 01:34:54;;;;;;;;;16.33;16.33;20.10;38.50;;;;;;4647116;30;8842;-75
2022/05/03 01:37:38;;;;;;;;;22.00;20.00;20.10;38.10;;;;;;4647058;30;9025;-75
2022/05/03 01:40:31;;;;;;;;;21.67;21.67;20.20;38.30;;;;;;4648344;30;8854;-76
2022/05/03 01:43:35;;;;;;;;;20.00;20.00;20.10;38.50;;;;;;4641396;30;8838;-75
2022/05/03 01:46:18;;;;;;;;;21.33;21.33;20.10;38.40;;;;;;4650131;30;8857;-73
2022/05/03 01:52:00;;;;;;;;;29.33;29.33;20.00;39.10;;;;;;4670039;30;8829;-75
2022/05/03 01:54:59;;;;;;;;;26.67;26.67;20.00;39.90;;;;;;4703669;30;8805;-73
2022/05/03 01:57:56;;;;;;;;;35.75;33.50;19.90;40.50;;;;;;4703283;30;8861;-75
2022/05/03 02:00:22;;;;;;;;;42.00;37.00;19.90;41.80;;;;;;4703476;30;8833;-76
2022/05/03 02:02:59;;;;;;;;;42.25;37.75;19.80;42.50;;;;;;4703253;30;8934;-75
2022/05/03 02:05:43;;;;;;;;;53.75;46.00;19.80;42.30;;;;;;4703467;30;8813;-74
2022/05/03 02:08:13;;;;;;;;;49.75;42.00;19.80;42.80;;;;;;4716722;30;8857;-73
2022/05/03 02:10:50;;;;;;;;;51.00;43.00;19.90;42.90;;;;;;4703342;30;8821;-74
2022/05/03 02:16:38;;;;;;;;;53.25;43.50;19.90;43.20;;;;;;4702897;30;8814;-74
2022/05/03 02:19:12;;;;;;;;;52.75;43.25;19.80;43.20;;;;;;4702931;30;8872;-73
2022/05/03 02:22:43;;;;;;;;;47.50;41.25;19.90;43.40;;;;;;4702934;30;8837;-73
2022/05/03 02:25:27;;;;;;;;;51.25;42.75;19.80;43.40;;;;;;4632591;30;8945;-73
2022/05/03 02:28:17;;;;;;;;;49.00;42.00;19.80;43.60;;;;;;4632716;30;8818;-75
2022/05/03 02:30:47;;;;;;;;;46.00;39.75;19.80;43.40;;;;;;4632635;30;8826;-74
2022/05/03 02:33:31;;;;;;;;;51.00;42.75;19.80;43.50;;;;;;4632574;30;8858;-72
2022/05/03 02:35:59;;;;;;;;;53.00;42.50;19.80;43.30;;;;;;4632671;30;8822;-71
2022/05/03 02:38:39;;;;;;;;;46.50;40.50;19.70;43.70;;;;;;4632392;30;8870;-75
2022/05/03 02:41:10;;;;;;;;;52.75;42.25;19.70;44.00;;;;;;4632485;30;8822;-71
2022/05/03 02:43:38;;;;;;;;;49.75;41.00;19.60;44.00;;;;;;4632511;30;9044;-73
2022/05/03 02:46:22;;;;;;;;;50.50;43.00;19.50;44.40;;;;;;4632334;30;9490;-74
2022/05/03 02:49:03;;;;;;;;;47.00;39.75;19.50;44.30;;;;;;4632376;30;8834;-72
2022/05/03 02:51:47;;;;;;;;;45.25;38.75;19.50;43.90;;;;;;4632090;30;8927;-74
2022/05/03 02:54:32;;;;;;;;;48.25;41.75;19.60;44.10;;;;;;4632299;30;8910;-72
2022/05/03 02:57:17;;;;;;;;;42.75;35.25;19.50;44.00;;;;;;4632040;30;8898;-72
2022/05/03 03:03:13;;;;;;;;;29.33;27.67;19.60;42.50;;;;;;4702310;30;8828;-75
2022/05/03 03:05:43;;;;;;;;;26.00;24.33;19.60;41.70;;;;;;4702163;30;8829;-74
2022/05/03 03:08:12;;;;;;;;;21.67;20.33;19.50;41.50;;;;;;4702601;30;8817;-75
2022/05/03 03:10:48;;;;;;;;;16.00;16.00;19.50;40.60;;;;;;4702350;30;8836;-75
2022/05/03 03:13:25;;;;;;;;;19.00;19.00;19.50;40.40;;;;;;4701748;30;8888;-75
2022/05/03 03:15:51;;;;;;;;;19.67;18.00;19.60;40.10;;;;;;4702271;30;8862;-74
2022/05/03 03:18:22;;;;;;;;;22.00;20.00;19.60;39.60;;;;;;4701927;30;8881;-72
2022/05/03 03:20:56;;;;;;;;;20.33;20.33;19.60;39.90;;;;;;4702002;30;8940;-74
2022/05/03 03:23:26;;;;;;;;;23.00;22.00;19.60;40.40;;;;;;4701957;30;8824;-72
2022/05/03 03:25:52;;;;;;;;;21.67;21.00;19.60;39.70;;;;;;4702144;30;8919;-74
2022/05/03 03:28:21;;;;;;;;;18.67;17.00;19.60;39.60;;;;;;4701856;30;8940;-75
2022/05/03 03:30:49;;;;;;;;;20.33;18.33;19.50;39.70;;;;;;4701014;30;8842;-73
2022/05/03 03:33:18;;;;;;;;;16.67;15.00;19.50;40.60;;;;;;4701919;30;9505;-75
2022/05/03 03:35:46;;;;;;;;;18.67;18.67;19.50;40.30;;;;;;4701894;30;9524;-73
2022/05/03 03:38:15;;;;;;;;;19.67;19.67;19.50;40.30;;;;;;4701392;30;9545;-73
2022/05/03 03:40:45;;;;;;;;;18.67;18.67;19.50;40.30;;;;;;4701941;30;8953;-74
2022/05/03 03:43:12;;;;;;;;;23.00;23.00;19.50;41.50;;;;;;4701803;30;8833;-72
2022/05/03 03:45:38;;;;;;;;;20.33;20.33;19.50;40.20;;;;;;4701776;30;8845;-75
2022/05/03 03:48:05;;;;;;;;;23.00;23.00;19.50;41.10;;;;;;4701517;30;8990;-75
2022/05/03 03:50:31;;;;;;;;;28.33;25.00;19.50;41.50;;;;;;4701522;30;8821;-75
2022/05/03 03:52:57;;;;;;;;;31.67;31.33;19.40;40.70;;;;;;4701444;30;8826;-73
2022/05/03 03:55:24;;;;;;;;;26.33;22.33;19.40;41.00;;;;;;4701207;30;8869;-72
2022/05/03 03:57:51;;;;;;;;;39.33;30.33;19.40;40.60;;;;;;4701322;30;8888;-74
2022/05/03 04:00:17;;;;;;;;;26.33;25.67;19.40;40.50;;;;;;4701334;30;8877;-73
2022/05/03 04:02:45;;;;;;;;;29.33;28.67;19.40;40.70;;;;;;4701055;30;8833;-74
2022/05/03 04:05:17;;;;;;;;;25.33;23.67;19.40;41.00;;;;;;4700366;30;9505;-75
2022/05/03 04:07:43;;;;;;;;;27.00;24.33;19.50;40.90;;;;;;4701595;30;8813;-72
2022/05/03 04:10:09;;;;;;;;;27.67;26.67;19.40;40.40;;;;;;4701307;30;8825;-73
2022/05/03 04:12:36;;;;;;;;;27.00;24.67;19.40;40.70;;;;;;4701373;30;8814;-73
2022/05/03 04:15:02;;;;;;;;;24.33;24.33;19.40;40.60;;;;;;4701246;30;8817;-72
2022/05/03 04:17:28;;;;;;;;;27.67;25.33;19.50;41.00;;;;;;4701173;30;8884;-73
2022/05/03 04:19:53;;;;;;;;;28.00;26.00;19.50;40.90;;;;;;4701198;30;8837;-74
2022/05/03 04:22:37;;;;;;;;;35.00;32.00;19.50;41.10;;;;;;4701119;30;8857;-74
2022/05/03 04:25:04;;;;;;;;;37.00;33.33;19.30;41.80;;;;;;4701132;30;8944;-74
2022/05/03 04:27:30;;;;;;;;;37.67;34.00;19.40;42.70;;;;;;4701100;30;8829;-76
2022/05/03 04:29:56;;;;;;;;;43.67;37.00;19.50;42.70;;;;;;4701324;30;8805;-74
2022/05/03 04:32:22;;;;;;;;;39.33;35.67;19.50;42.90;;;;;;4701063;30;8947;-75
2022/05/03 04:34:49;;;;;;;;;39.00;35.67;19.40;43.00;;;;;;4700967;30;8848;-73
2022/05/03 04:37:15;;;;;;;;;39.00;34.33;19.40;43.40;;;;;;4701186;30;8872;-74
2022/05/03 04:39:41;;;;;;;;;40.75;36.50;19.50;43.50;;;;;;4700402;30;8814;-72
2022/05/03 04:42:08;;;;;;;;;43.50;35.50;19.40;43.70;;;;;;4701146;30;8927;-73
2022/05/03 04:44:33;;;;;;;;;39.00;35.00;19.40;43.60;;;;;;4700941;30;8944;-74
2022/05/03 04:46:59;;;;;;;;;38.50;35.25;19.60;43.60;;;;;;4701231;30;8984;-72
2022/05/03 04:49:25;;;;;;;;;42.50;35.50;19.60;43.50;;;;;;4701105;30;8817;-75
2022/05/03 04:51:51;;;;;;;;;36.75;33.75;19.70;43.40;;;;;;4701148;30;8991;-75
2022/05/03 04:54:16;;;;;;;;;38.00;34.25;19.70;43.20;;;;;;4700859;30;9624;-73
2022/05/03 04:56:55;;;;;;;;;46.00;39.25;19.80;44.10;;;;;;4700623;30;8972;-75
2022/05/03 04:59:20;;;;;;;;;46.75;40.00;19.90;44.20;;;;;;4700731;30;8975;-73
2022/05/03 05:01:46;;;;;;;;;44.00;38.50;20.00;44.10;;;;;;4700794;30;8833;-74
2022/05/03 05:04:12;;;;;;;;;41.00;36.75;20.00;43.90;;;;;;4700954;30;8813;-73
2022/05/03 05:06:38;;;;;;;;;36.33;33.67;20.10;42.50;;;;;;4700690;30;9481;-74
2022/05/03 05:09:03;;;;;;;;;40.00;36.25;20.10;42.20;;;;;;4700710;30;8831;-74
2022/05/03 05:11:29;;;;;;;;;39.25;33.50;20.20;41.80;;;;;;4700625;30;8874;-73
2022/05/03 05:13:55;;;;;;;;;36.25;33.25;20.20;42.10;;;;;;4701500;30;8814;-73
2022/05/03 05:16:21;;;;;;;;;38.75;35.75;20.20;41.90;;;;;;4703835;30;8922;-74
2022/05/03 05:18:46;;;;;;;;;34.50;33.00;20.40;40.90;;;;;;4703962;30;8917;-72
2022/05/03 05:21:13;;;;;;;;;37.50;35.25;20.30;41.50;;;;;;4703942;30;8844;-72
2022/05/03 05:23:39;;;;;;;;;37.00;34.25;20.40;41.30;;;;;;4703808;30;8955;-72
2022/05/03 05:26:05;;;;;;;;;39.50;37.25;20.50;41.90;;;;;;4703850;30;8905;-74
2022/05/03 05:28:31;;;;;;;;;39.75;36.00;20.60;41.90;;;;;;4703795;30;8818;-74
2022/05/03 05:30:57;;;;;;;;;38.75;34.75;20.60;41.30;;;;;;4703927;30;8852;-74
2022/05/03 05:33:23;;;;;;;;;38.00;33.25;20.70;41.30;;;;;;4704060;30;8834;-74
2022/05/03 05:35:50;;;;;;;;;40.75;34.00;20.70;40.20;;;;;;4703821;30;8833;-71
2022/05/03 05:38:17;;;;;;;;;37.00;34.00;20.70;40.00;;;;;;4703695;30;8876;-73
2022/05/03 05:40:43;;;;;;;;;39.33;34.00;20.80;40.30;;;;;;4703628;30;8902;-76
2022/05/03 05:43:09;;;;;;;;;40.67;35.67;20.70;40.30;;;;;;4703691;30;8802;-75
2022/05/03 05:45:35;;;;;;;;;38.33;35.00;20.80;40.30;;;;;;4703528;30;8829;-74
2022/05/03 05:48:01;;;;;;;;;40.00;34.67;20.80;40.50;;;;;;4703881;30;8865;-73
2022/05/03 05:50:27;;;;;;;;;36.33;32.67;20.80;40.20;;;;;;4703628;30;8844;-74
2022/05/03 05:55:37;;;;;;;;;42.00;35.33;20.90;40.20;;;;;;4703280;30;8972;-73
2022/05/03 05:58:04;;;;;;;;;41.33;35.67;21.00;39.00;;;;;;4703452;30;9051;-73
2022/05/03 06:00:30;;;;;;;;;36.33;34.33;21.20;38.40;;;;;;4703521;30;8822;-74
2022/05/03 06:02:56;;;;;;;;;35.33;32.33;21.40;39.10;;;;;;4703550;30;8930;-73
2022/05/03 06:05:22;;;;;;;;;37.33;33.67;21.50;38.90;;;;;;4703200;30;8948;-74
2022/05/03 06:07:47;;;;;;;;;38.33;35.33;21.60;38.70;;;;;;4703212;30;8817;-75
2022/05/03 06:10:13;;;;;;;;;38.00;34.67;21.60;38.20;;;;;;4703340;30;8829;-73
2022/05/03 06:12:39;;;;;;;;;39.00;34.00;21.50;38.40;;;;;;4703108;30;8841;-74
2022/05/03 06:15:06;;;;;;;;;35.67;33.67;21.60;39.00;;;;;;4703050;30;8911;-74
2022/05/03 06:17:31;;;;;;;;;33.00;31.00;21.60;39.40;;;;;;4703138;30;8845;-73
2022/05/03 06:19:57;;;;;;;;;34.33;31.67;21.70;37.80;;;;;;4702990;30;8859;-74
2022/05/03 06:22:23;;;;;;;;;33.33;31.00;21.80;37.40;;;;;;4716752;30;8891;-75
2022/05/03 06:24:49;;;;;;;;;20.67;18.00;22.00;37.30;;;;;;4702978;30;9469;-75
2022/05/03 06:27:15;;;;;;;;;31.67;30.67;22.10;37.70;;;;;;4702555;30;8838;-74
2022/05/03 06:29:42;;;;;;;;;35.00;32.67;22.20;36.70;;;;;;4702913;30;8833;-75
2022/05/03 06:32:10;;;;;;;;;33.67;32.33;22.40;36.80;;;;;;4702462;30;8853;-75
2022/05/03 06:34:37;;;;;;;;;33.67;32.00;22.00;37.60;;;;;;4702604;30;8856;-74
2022/05/03 06:37:04;;;;;;;;;33.00;30.67;22.10;37.40;;;;;;4702659;30;8822;-74
2022/05/03 06:39:30;;;;;;;;;33.67;31.67;22.40;38.50;;;;;;4702569;30;8861;-72
2022/05/03 06:41:55;;;;;;;;;29.00;29.00;22.60;37.90;;;;;;4702649;30;8829;-73
2022/05/03 06:44:22;;;;;;;;;31.33;30.00;22.40;36.70;;;;;;4702564;30;8814;-73
2022/05/03 06:46:49;;;;;;;;;29.00;29.00;22.20;37.00;;;;;;4702462;30;9485;-75
2022/05/03 06:49:15;;;;;;;;;30.33;30.33;22.40;37.60;;;;;;4701924;30;8868;-74
2022/05/03 06:51:41;;;;;;;;;23.33;23.33;22.60;37.20;;;;;;4702496;30;8952;-75
2022/05/03 06:54:07;;;;;;;;;27.33;26.00;22.60;35.90;;;;;;4702817;30;8838;-74
2022/05/03 06:56:35;;;;;;;;;28.00;28.00;22.80;35.70;;;;;;4702374;30;8861;-75
2022/05/03 06:59:08;;;;;;;;;28.00;27.67;22.90;34.30;;;;;;4702536;30;8869;-71
2022/05/03 07:01:35;;;;;;;;;23.67;23.67;23.10;34.50;;;;;;4702548;30;8826;-75
2022/05/03 07:04:01;;;;;;;;;27.00;26.33;23.30;33.50;;;;;;4702254;30;8826;-74
2022/05/03 07:06:27;;;;;;;;;25.33;25.33;23.40;33.00;;;;;;4702185;30;8843;-75
2022/05/03 07:08:53;;;;;;;;;21.67;20.00;23.30;32.20;;;;;;4702389;30;9497;-74
2022/05/03 07:11:19;;;;;;;;;22.67;21.00;23.60;33.00;;;;;;4702167;30;8821;-75
2022/05/03 07:13:45;;;;;;;;;18.33;18.33;23.70;32.30;;;;;;4701091;30;8873;-72
2022/05/03 07:16:11;;;;;;;;;22.00;22.00;23.90;33.10;;;;;;4701935;30;8841;-76
2022/05/03 07:24:06;;;;;;;;;21.33;21.33;23.60;32.60;;;;;;4699198;30;8817;-78
2022/05/03 07:26:32;;;;;;;;;22.33;20.00;23.60;32.90;;;;;;4701911;30;8849;-74
2022/05/03 07:28:58;;;;;;;;;27.33;22.00;23.50;34.00;;;;;;4701643;30;8824;-72
2022/05/03 07:31:24;;;;;;;;;26.00;24.67;23.00;33.80;;;;;;4701337;30;8841;-71
2022/05/03 07:33:50;;;;;;;;;29.33;28.00;23.00;33.60;;;;;;4701205;30;8904;-72
2022/05/03 07:36:19;;;;;;;;;20.67;20.67;23.00;34.00;;;;;;4701735;30;8857;-72
2022/05/03 07:38:46;;;;;;;;;16.67;14.67;22.80;34.30;;;;;;4699944;30;8879;-71
2022/05/03 07:41:12;;;;;;;;;12.33;12.33;22.80;34.00;;;;;;4701439;30;8845;-71
2022/05/03 07:43:38;;;;;;;;;22.00;20.00;23.00;33.50;;;;;;4701013;30;8834;-72
2022/05/03 07:46:04;;;;;;;;;21.00;18.33;22.80;33.70;;;;;;4700098;30;8977;-72
2022/05/03 07:48:30;;;;;;;;;23.00;21.33;22.70;33.60;;;;;;4701370;30;8870;-71
2022/05/03 07:50:55;;;;;;;;;20.67;20.67;22.90;35.10;;;;;;4700578;30;8930;-73
2022/05/03 07:53:22;;;;;;;;;22.67;21.33;23.20;34.30;;;;;;4700976;30;8837;-74
2022/05/03 07:55:49;;;;;;;;;12.33;12.33;23.60;35.10;;;;;;4701220;30;8877;-74
2022/05/03 07:58:16;;;;;;;;;17.00;16.33;23.40;33.10;;;;;;4700570;30;8865;-73
2022/05/03 08:00:42;;;;;;;;;13.00;13.00;23.40;33.00;;;;;;4700482;30;8845;-74
2022/05/03 08:03:07;;;;;;;;;13.33;13.33;23.30;33.30;;;;;;4700308;30;8850;-72
2022/05/03 08:05:33;;;;;;;;;18.33;18.33;23.60;33.40;;;;;;4700799;30;8850;-72
2022/05/03 08:07:59;;;;;;;;;15.67;15.33;23.60;33.20;;;;;;4700641;30;8856;-74
2022/05/03 08:10:25;;;;;;;;;13.00;13.00;23.90;33.20;;;;;;4698751;30;8838;-74
2022/05/03 08:12:51;;;;;;;;;14.67;14.67;23.90;32.70;;;;;;4699893;30;8837;-75
2022/05/03 08:15:18;;;;;;;;;17.00;17.00;23.90;33.10;;;;;;4699827;30;8931;-78
2022/05/03 08:17:44;;;;;;;;;17.33;15.33;24.10;33.00;;;;;;4698381;30;8881;-75
2022/05/03 08:20:12;;;;;;;;;15.67;15.33;24.30;32.60;;;;;;4699729;30;8810;-75
2022/05/03 08:22:40;;;;;;;;;11.33;11.33;24.60;32.20;;;;;;4698458;30;8864;-76
2022/05/03 08:25:06;;;;;;;;;17.00;17.00;24.50;31.10;;;;;;4713283;30;8834;-77
2022/05/03 08:27:33;;;;;;;;;11.33;10.33;24.40;32.10;;;;;;4699731;30;8810;-75
2022/05/03 08:30:00;;;;;;;;;10.67;10.33;24.30;32.20;;;;;;4699670;30;8829;-77
2022/05/03 08:32:25;;;;;;;;;23.00;21.00;23.90;33.10;;;;;;4710308;30;8828;-73
2022/05/03 08:34:51;;;;;;;;;17.33;17.00;23.90;32.20;;;;;;4698023;30;8948;-76
2022/05/03 08:42:48;;;;;;;;;17.00;16.33;23.80;33.00;;;;;;4698261;30;8821;-74
2022/05/03 08:45:14;;;;;;;;;16.00;15.00;24.10;33.40;;;;;;4699175;30;8876;-73
2022/05/03 08:47:41;;;;;;;;;14.67;14.67;24.20;34.30;;;;;;4700086;30;8837;-72
2022/05/03 08:50:11;;;;;;;;;19.67;18.33;24.20;34.20;;;;;;4703013;30;9511;-73
2022/05/03 08:52:49;;;;;;;;;13.67;12.67;24.30;34.50;;;;;;4703431;30;8889;-73
2022/05/03 08:55:16;;;;;;;;;18.33;17.00;24.10;32.40;;;;;;4703970;30;8928;-73
2022/05/03 08:57:43;;;;;;;;;14.00;14.00;24.40;32.80;;;;;;4703785;30;8876;-74
2022/05/03 09:00:09;;;;;;;;;16.67;16.67;24.60;34.00;;;;;;4702845;30;8849;-73
2022/05/03 09:02:46;;;;;;;;;14.33;14.33;24.40;32.70;;;;;;4703772;30;8917;-73
2022/05/03 09:05:12;;;;;;;;;15.00;15.00;24.30;33.10;;;;;;4703234;30;8841;-75
2022/05/03 09:07:38;;;;;;;;;24.00;21.00;24.70;33.40;;;;;;4703813;30;8852;-73
2022/05/03 09:10:20;;;;;;;;;21.33;19.00;25.10;32.70;;;;;;4701992;30;8837;-75
2022/05/03 09:12:48;;;;;;;;;21.00;21.00;25.50;31.10;;;;;;4703856;30;8860;-74
2022/05/03 09:15:14;;;;;;;;;18.00;17.67;26.00;30.90;;;;;;4703789;30;9784;-73
2022/05/03 09:17:42;;;;;;;;;20.00;18.33;26.10;30.50;;;;;;4703915;30;8921;-73
2022/05/03 09:26:13;;;;;;;;;18.00;17.33;26.40;30.90;;;;;;4702873;30;11732;-75
2022/05/03 09:28:50;;;;;;;;;14.67;14.67;26.10;33.00;;;;;;4703302;30;8954;-77
2022/05/03 09:31:35;;;;;;;;;14.00;14.00;26.00;32.30;;;;;;4703498;30;9480;-76
2022/05/03 09:34:25;;;;;;;;;20.00;18.00;26.40;32.30;;;;;;4702823;30;9558;-76
2022/05/03 09:36:55;;;;;;;;;15.33;14.67;26.40;30.80;;;;;;4702413;30;8850;-77
2022/05/03 09:39:24;;;;;;;;;25.67;23.00;26.50;30.20;;;;;;4703148;30;8988;-75
2022/05/03 09:42:16;;;;;;;;;21.33;21.33;26.70;29.30;;;;;;4703155;30;8853;-75
2022/05/03 09:44:52;;;;;;;;;18.67;17.67;26.50;29.40;;;;;;4701569;30;8830;-77
2022/05/03 09:47:20;;;;;;;;;21.00;19.33;26.50;30.20;;;;;;4701753;30;8850;-74
2022/05/03 09:49:46;;;;;;;;;18.33;16.00;26.60;33.20;;;;;;4699951;30;8873;-73
2022/05/03 09:52:36;;;;;;;;;15.00;14.33;26.50;31.30;;;;;;4700109;30;8868;-77
2022/05/03 09:55:04;;;;;;;;;16.00;14.00;26.60;30.70;;;;;;4699078;30;9587;-74
2022/05/03 09:57:32;;;;;;;;;15.00;15.00;26.90;31.20;;;;;;4700516;30;8869;-74
2022/05/03 09:59:58;;;;;;;;;10.33;9.67;26.90;29.60;;;;;;4702718;30;8984;-75
2022/05/03 10:02:27;;;;;;;;;18.33;15.67;26.80;30.50;;;;;;4701738;30;8842;-75
2022/05/03 10:04:58;;;;;;;;;14.67;13.67;27.00;29.00;;;;;;4703023;30;11761;-77
2022/05/03 10:07:24;;;;;;;;;17.67;15.33;27.40;30.40;;;;;;4703137;30;11749;-75
2022/05/03 10:09:50;;;;;;;;;14.33;12.33;27.40;29.20;;;;;;4701990;30;8923;-74
2022/05/03 10:12:17;;;;;;;;;17.67;15.33;27.40;28.60;;;;;;4701827;30;11848;-76
2022/05/03 10:14:45;;;;;;;;;15.33;14.67;27.70;29.00;;;;;;4702862;30;8845;-73
2022/05/03 10:20:42;;;;;;;;;15.00;13.00;28.10;27.70;;;;;;4702751;30;11748;-76
2022/05/03 10:23:21;;;;;;;;;16.67;16.67;27.80;27.90;;;;;;4701832;30;11746;-72
2022/05/03 10:25:47;;;;;;;;;14.00;12.67;28.00;28.70;;;;;;4702755;30;11753;-73
2022/05/03 10:28:13;;;;;;;;;12.33;12.33;28.20;27.10;;;;;;4701739;30;11785;-72
2022/05/03 10:31:05;;;;;;;;;14.00;14.00;28.70;27.50;;;;;;4702468;30;8849;-75
2022/05/03 10:33:30;;;;;;;;;14.33;14.33;28.90;28.40;;;;;;4699218;30;11779;-74
2022/05/03 10:35:58;;;;;;;;;13.33;13.33;28.80;26.90;;;;;;4701313;30;12366;-76
2022/05/03 10:39:02;;;;;;;;;12.00;12.00;28.90;27.10;;;;;;4715651;30;8968;-75
2022/05/03 10:41:29;;;;;;;;;17.33;15.33;29.10;26.10;;;;;;4682582;30;8861;-77
2022/05/03 10:43:55;;;;;;;;;12.00;12.00;29.40;26.00;;;;;;4682231;30;11821;-75
2022/05/03 10:46:22;;;;;;;;;15.33;14.33;29.60;26.00;;;;;;4683206;30;11938;-76
2022/05/03 10:49:15;;;;;;;;;15.33;15.33;29.70;25.90;;;;;;4681445;30;8849;-77
2022/05/03 10:51:42;;;;;;;;;13.33;13.00;29.30;26.10;;;;;;4679408;30;11810;-73
2022/05/03 10:54:08;;;;;;;;;23.00;17.67;28.80;24.90;;;;;;4680587;30;11853;-73
2022/05/03 10:56:34;;;;;;;;;13.33;13.33;29.50;25.90;;;;;;4682430;30;11829;-75
2022/05/03 10:59:05;;;;;;;;;12.00;12.00;30.00;25.80;;;;;;4680882;30;9069;-76
2022/05/03 11:01:32;;;;;;;;;13.67;13.33;29.40;24.40;;;;;;4682791;30;9546;-75
2022/05/03 11:03:58;;;;;;;;;19.33;19.33;28.80;25.90;;;;;;4682007;30;11823;-76
2022/05/03 11:06:25;;;;;;;;;16.67;15.67;28.70;27.00;;;;;;4682559;30;12612;-76
2022/05/03 11:11:55;;;;;;;;;14.25;14.25;28.30;26.50;;;;;;4682505;30;8903;-76
2022/05/03 11:14:21;;;;;;;;;14.67;14.67;28.20;26.70;;;;;;4668522;30;11761;-76
2022/05/03 11:17:05;;;;;;;;;14.33;13.67;28.00;26.40;;;;;;4684478;30;11798;-76
2022/05/03 11:19:35;;;;;;;;;15.25;14.25;28.70;26.70;;;;;;4701629;30;11779;-76
2022/05/03 11:22:08;;;;;;;;;10.33;10.33;30.30;26.20;;;;;;4701980;30;11729;-76
2022/05/03 11:24:33;;;;;;;;;14.50;14.50;36.00;23.70;;;;;;4701336;30;11727;-76
2022/05/03 11:27:01;;;;;;;;;16.25;16.25;38.20;22.10;;;;;;4701954;30;11851;-76
2022/05/03 11:29:51;;;;;;;;;12.00;12.00;40.10;19.50;;;;;;4701383;30;8865;-76
2022/05/03 11:32:34;;;;;;;;;12.00;12.00;36.70;19.50;;;;;;4698164;30;11758;-76
2022/05/03 11:35:05;;;;;;;;;13.75;12.75;36.30;20.00;;;;;;4700844;30;12805;-76
2022/05/03 11:37:32;;;;;;;;;13.00;13.00;38.20;20.20;;;;;;4700752;30;11759;-76
2022/05/03 11:40:05;;;;;;;;;12.00;12.00;40.40;20.20;;;;;;4699996;30;11826;-74
2022/05/03 11:42:42;;;;;;;;;13.75;13.75;36.40;19.70;;;;;;4699581;30;12493;-75
2022/05/03 11:45:09;;;;;;;;;17.25;16.25;33.70;22.10;;;;;;4701373;30;11815;-76
2022/05/03 11:47:38;;;;;;;;;14.75;13.25;31.60;23.30;;;;;;4701236;30;11843;-75
2022/05/03 11:50:05;;;;;;;;;15.67;15.67;29.90;24.30;;;;;;4698795;30;12694;-75
2022/05/03 11:57:59;;;;;;;;;18.33;18.33;27.90;27.00;;;;;;4699058;30;11913;-76
2022/05/03 12:00:25;;;;;;;;;15.33;15.33;27.70;27.90;;;;;;4700095;30;11854;-75
2022/05/03 12:02:51;;;;;;;;;14.00;14.00;27.40;28.40;;;;;;4701414;30;8929;-75
2022/05/03 12:05:21;;;;;;;;;17.33;17.00;27.20;28.40;;;;;;4700439;30;8821;-76
2022/05/03 12:07:49;;;;;;;;;15.67;15.67;27.10;28.40;;;;;;4697967;30;8903;-77
2022/05/03 12:10:16;;;;;;;;;15.33;14.00;27.00;28.30;;;;;;4701012;30;11735;-77
2022/05/03 12:12:45;;;;;;;;;16.67;16.67;27.00;28.20;;;;;;4701140;30;11812;-78
2022/05/03 12:15:24;;;;;;;;;16.33;16.33;27.50;28.40;;;;;;4701040;30;11722;-77
2022/05/03 12:17:59;;;;;;;;;18.25;16.00;32.60;24.60;;;;;;4701129;30;11834;-77
2022/05/03 12:20:25;;;;;;;;;17.67;17.67;34.10;23.60;;;;;;4700511;30;11771;-77
2022/05/03 12:23:09;;;;;;;;;18.00;16.00;35.80;22.40;;;;;;4699981;30;11800;-75
2022/05/03 12:25:36;;;;;;;;;13.00;13.00;36.10;21.10;;;;;;4701019;30;11742;-77
2022/05/03 12:28:04;;;;;;;;;19.75;18.50;34.70;21.70;;;;;;4699961;30;11832;-76
2022/05/03 12:30:30;;;;;;;;;16.00;16.00;33.50;22.10;;;;;;4701128;30;11735;-75
2022/05/03 12:33:06;;;;;;;;;12.00;11.75;33.00;22.10;;;;;;4700409;30;11765;-76
2022/05/03 12:35:34;;;;;;;;;13.50;10.00;32.20;23.20;;;;;;4700917;30;12443;-76
2022/05/03 12:38:14;;;;;;;;;16.25;15.00;31.70;22.80;;;;;;4699056;30;12422;-73
2022/05/03 12:40:46;;;;;;;;;15.50;13.25;31.30;23.30;;;;;;4698443;30;11896;-77
2022/05/03 12:43:20;;;;;;;;;14.00;14.00;31.20;24.10;;;;;;4699331;30;11881;-77
2022/05/03 12:45:56;;;;;;;;;15.00;14.75;31.00;23.40;;;;;;4700779;30;11837;-76
2022/05/03 12:48:22;;;;;;;;;18.50;18.50;31.00;23.60;;;;;;4700723;30;11778;-76
2022/05/03 12:50:48;;;;;;;;;13.25;13.25;31.10;24.10;;;;;;4700971;30;11732;-77
2022/05/03 12:53:15;;;;;;;;;10.50;9.25;31.10;23.80;;;;;;4700291;30;11732;-77
2022/05/03 12:55:41;;;;;;;;;14.25;14.25;31.30;23.70;;;;;;4699110;30;11826;-76
2022/05/03 12:58:22;;;;;;;;;6.75;6.75;31.20;23.10;;;;;;4700712;30;11758;-74
2022/05/03 13:00:53;;;;;;;;;13.50;13.00;31.30;22.70;;;;;;4698782;30;8936;-74
2022/05/03 13:03:19;;;;;;;;;16.75;16.75;31.30;23.50;;;;;;4698892;30;11769;-75
2022/05/03 13:05:45;;;;;;;;;13.50;13.50;31.20;22.70;;;;;;4699968;30;11813;-75
2022/05/03 13:08:11;;;;;;;;;15.75;15.75;31.10;23.10;;;;;;4698838;30;11742;-74
2022/05/03 13:10:38;;;;;;;;;14.00;14.00;31.30;22.50;;;;;;4700003;30;8842;-74
2022/05/03 13:13:04;;;;;;;;;12.75;11.50;31.30;21.40;;;;;;4700191;30;9489;-75
2022/05/03 13:15:31;;;;;;;;;11.00;11.00;30.60;20.50;;;;;;4700298;30;11738;-75
2022/05/03 13:17:57;;;;;;;;;13.00;12.00;30.30;21.20;;;;;;4699502;30;8897;-75
2022/05/03 13:20:23;;;;;;;;;12.00;11.75;29.60;21.20;;;;;;4700426;30;11752;-75
2022/05/03 13:22:49;;;;;;;;;15.25;15.25;29.20;21.70;;;;;;4700588;30;11739;-73
2022/05/03 13:25:15;;;;;;;;;10.25;10.25;29.00;23.40;;;;;;4700548;30;8845;-74
2022/05/03 13:27:41;;;;;;;;;13.25;13.25;28.70;21.60;;;;;;4699822;30;8860;-75
2022/05/03 13:30:07;;;;;;;;;14.50;12.75;28.20;21.90;;;;;;4713910;30;8837;-80
2022/05/03 13:32:33;;;;;;;;;14.25;12.25;28.00;22.90;;;;;;4698852;30;8826;-77
2022/05/03 13:34:59;;;;;;;;;13.33;11.00;27.90;23.60;;;;;;4695422;30;12472;-75
2022/05/03 13:40:33;;;;;;;;;15.67;13.67;27.80;24.10;;;;;;4685418;30;8913;-77